Howes Cave, NY (12092)

7:05 PM EST on November 28, 2014 (GMT -0500)
Above the Reservoir | Change Station
CLOSE
Current Station
Personal Weather Station
Location: COBLESKILL, NY
Elevation: 1425 ft
Nearby Weather Stations

Elev 1425 ft 42.66 °N, 74.43 °W | Updated 6 minutes ago

Partly Cloudy
Partly Cloudy
19.6 °F
Feels Like 11 °F
N
7.0
Wind Variable Wind from WNW
Gusts 15.0 mph

Today
High -- | Low -- °F
--% Chance of Precip.
Yesterday
High -- | Low -- °F
Precip. -- in
7:04 AM 4:25 PM
Waxing Crescent, 45% visible
Pressure 30.20 in
Visibility 10.0 miles
Clouds Clear
Windchill 11 °F
Dew Point 12 °F
Humidity 72%
Rainfall 0.00 in
Snow Depth Not available.
UV 0 out of 12
Pollen .10 out of 12
Air Quality Not available.
Flu Activity Not available.
METAR KSCH 282253Z 28008KT 10SM CLR M04/M09 A3020

More Conditions Fewer Conditions

Pressure 30.20 in
Visibility 10.0 miles
Clouds Clear
Windchill 11 °F
Dew Point 12 °F
Humidity 72%
Rainfall 0.00 in
Snow Depth Not available.
UV 0 out of 12
Pollen .10 out of 12
Air Quality Not available.
Flu Activity Not available.
METAR KSCH 282253Z 28008KT 10SM CLR M04/M09 A3020

More Conditions Fewer Conditions

10-Day Weather Forecast

Almanac

Astronomy

Nov. 28, 2014 Rise Set
Actual Time
Civil Twilight
Nautical Twilight
Astronomical Twilight
Moon
Length of Visible Light
Length of Day
Tomorrow will be .
, % of the Moon is Illuminated

Today's Extremes

State Highs State Lows

Community

WunderPhotos

Upload Photos

1,774,342 photos uploaded!

WunderBlogs® & News

Nearby

Air Quality

  Air Quality AQ Index Pollutant
Not available.

Snow Depth

Station Depth Elevation

Earthquake Activity

City Distance Mag. Time & Date
Minimum magnitude displayed is 2.5.

Coastal Water Temperatures

Place Temperature

Nearby Weather Stations